Galena, Nevada Weather observations

Data are for 10 minute period ending at time listed.
 Day   Time    Ave.   Ave.  Ave.  Vector   Max.   Total    Solar   
  of    of     Air    Rel.  Wind   Wind    Wind  Precip.   Rad.    
Year   Day     Temp.  Hum.  Speed  Dir.    Gust                    
2016   (PST)    F      %     mph   deg.    mph     in.     W/m2    
------------------------------------------------------------------- 
 338   13:00   47.0    28    5.0    70      8.0    6.26     494  
 338   14:00   49.0    27    2.0    99      6.0    6.26     425  
 338   15:00   49.0    25    2.0   141      6.0    6.26     313  
 338   16:00   47.0    27    1.0   156      5.0    6.26     164  
 338   17:00   41.0    38    3.0   258      6.0    6.26      10  
 338   18:00   35.0    46    4.0   288      5.0    6.26       0  
 338   19:00   34.0    49    4.0   283      5.0    6.26       0  
 338   20:00   36.0    47    3.0   225      5.0    6.26       0  
 338   21:00   34.0    52    1.0   338      4.0    6.26       0  
 338   22:00   33.0    57    2.0   342      6.0    6.26       0  
 338   23:00   33.0    61    1.0   293      5.0    6.26       0  
 339    0:00   34.0    57    0.0   302      3.0    6.26       0  
 339    1:00   36.0    51    4.0   333      7.0    6.26       0  
 339    2:00   36.0    56    3.0   311      7.0    6.26       0  
 339    3:00   34.0    58    3.0   341      6.0    6.26       0  
 339    4:00   33.0    57    2.0   277      7.0    6.26       0  
 339    5:00   35.0    44    4.0   239      8.0    6.26       0  
 339    6:00   35.0    41    2.0   228      8.0    6.26       0  
 339    7:00   37.0    39    2.0   241      5.0    6.26       0  
 339    8:00   37.0    48    1.0   298      6.0    6.26      22  
 339    9:00   47.0    37    2.0   157      8.0    6.26     156  
 339   10:00   45.0    42    4.0   162      8.0    6.26     219  
 339   11:00   52.0    24    7.0   251     21.0    6.26     188  
 339   12:00   55.0    19    8.0   229     24.0    6.26     331  

Return to Galena, Nevada graphs page.


Western Regional Climate Center,wrcc@dri.edu